sensor_id;sensor_type;location;lat;lon;timestamp;pressure;altitude;pressure_sealevel;temperature;humidity
8160;BME280;27404;52.398;9.646;2022-07-23T00:01:21;101093.56;;;13.90;100.00
8160;BME280;27404;52.398;9.646;2022-07-23T00:03:47;101090.00;;;13.90;100.00
8160;BME280;27404;52.398;9.646;2022-07-23T00:06:13;101094.97;;;13.93;100.00
8160;BME280;27404;52.398;9.646;2022-07-23T00:08:39;101086.72;;;13.93;100.00
8160;BME280;27404;52.398;9.646;2022-07-23T00:11:04;101084.75;;;13.88;100.00
8160;BME280;27404;52.398;9.646;2022-07-23T00:13:30;101091.47;;;13.81;100.00
8160;BME280;27404;52.398;9.646;2022-07-23T00:15:55;101086.59;;;13.71;100.00
8160;BME280;27404;52.398;9.646;2022-07-23T00:18:21;101093.09;;;13.65;100.00
8160;BME280;27404;52.398;9.646;2022-07-23T00:20:47;101089.31;;;13.54;100.00
8160;BME280;27404;52.398;9.646;2022-07-23T00:23:12;101098.53;;;13.47;100.00
8160;BME280;27404;52.398;9.646;2022-07-23T00:25:38;101104.75;;;13.43;100.00
8160;BME280;27404;52.398;9.646;2022-07-23T00:28:04;101100.78;;;13.39;100.00
8160;BME280;27404;52.398;9.646;2022-07-23T00:30:30;101102.38;;;13.35;100.00
8160;BME280;27404;52.398;9.646;2022-07-23T00:32:59;101106.28;;;13.39;100.00
8160;BME280;27404;52.398;9.646;2022-07-23T00:35:27;101099.00;;;13.44;100.00
8160;BME280;27404;52.398;9.646;2022-07-23T00:37:54;101091.72;;;13.50;100.00
8160;BME280;27404;52.398;9.646;2022-07-23T00:40:20;101088.22;;;13.55;100.00
8160;BME280;27404;52.398;9.646;2022-07-23T00:42:45;101087.75;;;13.58;100.00
8160;BME280;27404;52.398;9.646;2022-07-23T00:45:11;101085.69;;;13.65;100.00
8160;BME280;27404;52.398;9.646;2022-07-23T00:47:37;101088.44;;;13.65;100.00
8160;BME280;27404;52.398;9.646;2022-07-23T00:50:04;101088.19;;;13.67;100.00
8160;BME280;27404;52.398;9.646;2022-07-23T00:52:31;101084.94;;;13.70;100.00
8160;BME280;27404;52.398;9.646;2022-07-23T00:54:57;101089.63;;;13.69;100.00
8160;BME280;27404;52.398;9.646;2022-07-23T00:57:23;101101.09;;;13.66;100.00
8160;BME280;27404;52.398;9.646;2022-07-23T00:59:48;101092.84;;;13.66;100.00
8160;BME280;27404;52.398;9.646;2022-07-23T01:02:14;101094.91;;;13.59;100.00
8160;BME280;27404;52.398;9.646;2022-07-23T01:04:39;101098.03;;;13.51;100.00
8160;BME280;27404;52.398;9.646;2022-07-23T01:07:05;101097.59;;;13.42;100.00
8160;BME280;27404;52.398;9.646;2022-07-23T01:09:31;101104.63;;;13.38;100.00
8160;BME280;27404;52.398;9.646;2022-07-23T01:11:57;101093.53;;;13.32;100.00
8160;BME280;27404;52.398;9.646;2022-07-23T01:14:23;101080.44;;;13.23;100.00
8160;BME280;27404;52.398;9.646;2022-07-23T01:16:49;101085.06;;;13.22;100.00
8160;BME280;27404;52.398;9.646;2022-07-23T01:19:15;101085.81;;;13.17;100.00
8160;BME280;27404;52.398;9.646;2022-07-23T01:21:47;101081.53;;;13.10;100.00
8160;BME280;27404;52.398;9.646;2022-07-23T01:24:13;101078.06;;;13.02;100.00
8160;BME280;27404;52.398;9.646;2022-07-23T01:26:42;101072.94;;;13.06;100.00
8160;BME280;27404;52.398;9.646;2022-07-23T01:29:08;101063.75;;;13.12;100.00
8160;BME280;27404;52.398;9.646;2022-07-23T01:31:34;101072.09;;;13.06;100.00
8160;BME280;27404;52.398;9.646;2022-07-23T01:33:59;101077.94;;;12.97;100.00
8160;BME280;27404;52.398;9.646;2022-07-23T01:36:25;101080.72;;;12.85;100.00
8160;BME280;27404;52.398;9.646;2022-07-23T01:38:50;101070.69;;;12.79;100.00
8160;BME280;27404;52.398;9.646;2022-07-23T01:41:16;101078.81;;;12.74;100.00
8160;BME280;27404;52.398;9.646;2022-07-23T01:43:42;101082.50;;;12.68;100.00
8160;BME280;27404;52.398;9.646;2022-07-23T01:46:07;101071.78;;;12.66;100.00
8160;BME280;27404;52.398;9.646;2022-07-23T01:48:33;101086.94;;;12.69;100.00
8160;BME280;27404;52.398;9.646;2022-07-23T01:50:58;101077.38;;;12.59;100.00
8160;BME280;27404;52.398;9.646;2022-07-23T01:53:24;101089.34;;;12.53;100.00
8160;BME280;27404;52.398;9.646;2022-07-23T01:55:49;101082.66;;;12.49;100.00
8160;BME280;27404;52.398;9.646;2022-07-23T01:58:15;101075.72;;;12.47;100.00
8160;BME280;27404;52.398;9.646;2022-07-23T02:00:40;101080.97;;;12.48;100.00
8160;BME280;27404;52.398;9.646;2022-07-23T02:03:06;101076.69;;;12.52;100.00
8160;BME280;27404;52.398;9.646;2022-07-23T02:05:31;101073.22;;;12.57;100.00
8160;BME280;27404;52.398;9.646;2022-07-23T02:07:58;101078.84;;;12.62;100.00
8160;BME280;27404;52.398;9.646;2022-07-23T02:10:25;101082.38;;;12.63;100.00
8160;BME280;27404;52.398;9.646;2022-07-23T02:12:50;101067.59;;;12.64;100.00
8160;BME280;27404;52.398;9.646;2022-07-23T02:15:15;101072.63;;;12.67;100.00
8160;BME280;27404;52.398;9.646;2022-07-23T02:17:41;101080.97;;;12.72;100.00
8160;BME280;27404;52.398;9.646;2022-07-23T02:20:07;101077.53;;;12.77;100.00
8160;BME280;27404;52.398;9.646;2022-07-23T02:22:34;101060.00;;;12.78;100.00
8160;BME280;27404;52.398;9.646;2022-07-23T02:24:59;101064.25;;;12.85;100.00
8160;BME280;27404;52.398;9.646;2022-07-23T02:27:25;101065.34;;;12.84;100.00
8160;BME280;27404;52.398;9.646;2022-07-23T02:29:50;101059.47;;;12.93;100.00
8160;BME280;27404;52.398;9.646;2022-07-23T02:32:16;101063.63;;;12.95;100.00
8160;BME280;27404;52.398;9.646;2022-07-23T02:34:41;101065.09;;;12.98;100.00
8160;BME280;27404;52.398;9.646;2022-07-23T02:37:07;101068.16;;;13.01;100.00
8160;BME280;27404;52.398;9.646;2022-07-23T02:39:34;101072.69;;;13.08;100.00
8160;BME280;27404;52.398;9.646;2022-07-23T02:41:59;101074.34;;;13.09;100.00
8160;BME280;27404;52.398;9.646;2022-07-23T02:44:25;101057.66;;;13.10;100.00
8160;BME280;27404;52.398;9.646;2022-07-23T02:46:50;101051.91;;;13.12;100.00
8160;BME280;27404;52.398;9.646;2022-07-23T02:49:16;101059.06;;;13.13;100.00
8160;BME280;27404;52.398;9.646;2022-07-23T02:51:41;101065.41;;;13.13;100.00
8160;BME280;27404;52.398;9.646;2022-07-23T02:54:07;101067.09;;;13.14;100.00
8160;BME280;27404;52.398;9.646;2022-07-23T02:56:32;101053.69;;;13.18;100.00
8160;BME280;27404;52.398;9.646;2022-07-23T02:58:58;101043.78;;;13.17;100.00
8160;BME280;27404;52.398;9.646;2022-07-23T03:01:23;101050.47;;;13.21;100.00
8160;BME280;27404;52.398;9.646;2022-07-23T03:03:49;101050.25;;;13.23;100.00
8160;BME280;27404;52.398;9.646;2022-07-23T03:06:14;101039.47;;;13.21;100.00
8160;BME280;27404;52.398;9.646;2022-07-23T03:08:40;101037.31;;;13.23;100.00
8160;BME280;27404;52.398;9.646;2022-07-23T03:11:05;101051.66;;;13.25;100.00
8160;BME280;27404;52.398;9.646;2022-07-23T03:13:36;101050.56;;;13.26;100.00
8160;BME280;27404;52.398;9.646;2022-07-23T03:16:02;101035.50;;;13.29;100.00
8160;BME280;27404;52.398;9.646;2022-07-23T03:18:27;101033.84;;;13.28;100.00
8160;BME280;27404;52.398;9.646;2022-07-23T03:20:53;101024.28;;;13.30;100.00
8160;BME280;27404;52.398;9.646;2022-07-23T03:23:18;101024.63;;;13.34;100.00
8160;BME280;27404;52.398;9.646;2022-07-23T03:25:44;101026.06;;;13.37;100.00
8160;BME280;27404;52.398;9.646;2022-07-23T03:28:09;101009.59;;;13.37;100.00
8160;BME280;27404;52.398;9.646;2022-07-23T03:30:34;100999.56;;;13.42;100.00
8160;BME280;27404;52.398;9.646;2022-07-23T03:33:00;100994.84;;;13.55;100.00
8160;BME280;27404;52.398;9.646;2022-07-23T03:35:25;100997.41;;;13.61;100.00
8160;BME280;27404;52.398;9.646;2022-07-23T03:37:51;101000.53;;;13.65;100.00
8160;BME280;27404;52.398;9.646;2022-07-23T03:40:16;101007.00;;;13.59;100.00
8160;BME280;27404;52.398;9.646;2022-07-23T03:42:42;101017.06;;;13.53;100.00
8160;BME280;27404;52.398;9.646;2022-07-23T03:45:08;101025.44;;;13.46;100.00
8160;BME280;27404;52.398;9.646;2022-07-23T03:47:34;101035.47;;;13.41;100.00
8160;BME280;27404;52.398;9.646;2022-07-23T03:49:59;101030.00;;;13.41;100.00
8160;BME280;27404;52.398;9.646;2022-07-23T03:52:25;101041.94;;;13.35;100.00
8160;BME280;27404;52.398;9.646;2022-07-23T03:54:50;101059.25;;;13.35;100.00
8160;BME280;27404;52.398;9.646;2022-07-23T03:57:16;101064.88;;;13.28;100.00
8160;BME280;27404;52.398;9.646;2022-07-23T03:59:41;101064.78;;;13.23;100.00
8160;BME280;27404;52.398;9.646;2022-07-23T04:02:07;101061.34;;;13.16;100.00
8160;BME280;27404;52.398;9.646;2022-07-23T04:04:32;101065.28;;;13.20;100.00
8160;BME280;27404;52.398;9.646;2022-07-23T04:06:57;101062.03;;;13.23;100.00
8160;BME280;27404;52.398;9.646;2022-07-23T04:09:23;101053.41;;;13.31;100.00
8160;BME280;27404;52.398;9.646;2022-07-23T04:11:48;101055.78;;;13.40;100.00
8160;BME280;27404;52.398;9.646;2022-07-23T04:14:14;101054.59;;;13.47;100.00
8160;BME280;27404;52.398;9.646;2022-07-23T04:16:40;101050.53;;;13.50;100.00
8160;BME280;27404;52.398;9.646;2022-07-23T04:19:05;101053.50;;;13.48;100.00
8160;BME280;27404;52.398;9.646;2022-07-23T04:21:31;101049.34;;;13.46;100.00
8160;BME280;27404;52.398;9.646;2022-07-23T04:23:56;101059.97;;;13.42;100.00
8160;BME280;27404;52.398;9.646;2022-07-23T04:26:22;101062.09;;;13.40;100.00
8160;BME280;27404;52.398;9.646;2022-07-23T04:28:47;101079.41;;;13.41;100.00
8160;BME280;27404;52.398;9.646;2022-07-23T04:31:13;101075.50;;;13.37;100.00
8160;BME280;27404;52.398;9.646;2022-07-23T04:33:38;101072.50;;;13.38;100.00
8160;BME280;27404;52.398;9.646;2022-07-23T04:36:04;101071.91;;;13.36;100.00
8160;BME280;27404;52.398;9.646;2022-07-23T04:38:29;101070.72;;;13.32;100.00
8160;BME280;27404;52.398;9.646;2022-07-23T04:40:55;101064.78;;;13.23;100.00
8160;BME280;27404;52.398;9.646;2022-07-23T04:43:20;101055.47;;;13.24;100.00
8160;BME280;27404;52.398;9.646;2022-07-23T04:45:46;101053.47;;;13.20;100.00
8160;BME280;27404;52.398;9.646;2022-07-23T04:48:11;101064.78;;;13.23;100.00
8160;BME280;27404;52.398;9.646;2022-07-23T04:50:36;101064.44;;;13.20;100.00
8160;BME280;27404;52.398;9.646;2022-07-23T04:53:02;101063.59;;;13.19;100.00
8160;BME280;27404;52.398;9.646;2022-07-23T04:55:28;101063.38;;;13.21;100.00
8160;BME280;27404;52.398;9.646;2022-07-23T04:57:53;101068.72;;;13.27;100.00
8160;BME280;27404;52.398;9.646;2022-07-23T05:00:19;101062.84;;;13.36;100.00
8160;BME280;27404;52.398;9.646;2022-07-23T05:02:44;101062.63;;;13.66;100.00
8160;BME280;27404;52.398;9.646;2022-07-23T05:05:09;101071.88;;;14.06;100.00
8160;BME280;27404;52.398;9.646;2022-07-23T05:07:35;101072.78;;;14.46;100.00
8160;BME280;27404;52.398;9.646;2022-07-23T05:10:00;101077.13;;;14.98;100.00
8160;BME280;27404;52.398;9.646;2022-07-23T05:12:26;101076.13;;;15.49;100.00
8160;BME280;27404;52.398;9.646;2022-07-23T05:14:51;101076.50;;;16.12;100.00
8160;BME280;27404;52.398;9.646;2022-07-23T05:17:18;101068.97;;;16.35;100.00
8160;BME280;27404;52.398;9.646;2022-07-23T05:19:43;101070.88;;;16.35;100.00
8160;BME280;27404;52.398;9.646;2022-07-23T05:22:09;101070.66;;;16.41;100.00
8160;BME280;27404;52.398;9.646;2022-07-23T05:24:34;101070.44;;;16.48;100.00
8160;BME280;27404;52.398;9.646;2022-07-23T05:26:59;101067.44;;;16.17;100.00
8160;BME280;27404;52.398;9.646;2022-07-23T05:29:25;101078.41;;;17.41;100.00
8160;BME280;27404;52.398;9.646;2022-07-23T05:31:50;101084.16;;;20.26;100.00
8160;BME280;27404;52.398;9.646;2022-07-23T05:34:16;101085.00;;;23.24;86.68
8160;BME280;27404;52.398;9.646;2022-07-23T05:36:41;101087.97;;;25.50;65.57
8160;BME280;27404;52.398;9.646;2022-07-23T05:39:07;101090.81;;;27.25;52.29
8160;BME280;27404;52.398;9.646;2022-07-23T05:41:32;101090.94;;;28.68;44.83
8160;BME280;27404;52.398;9.646;2022-07-23T05:43:57;101095.25;;;29.11;40.93
8160;BME280;27404;52.398;9.646;2022-07-23T05:46:23;101093.69;;;29.92;39.82
8160;BME280;27404;52.398;9.646;2022-07-23T05:48:48;101101.41;;;30.36;37.98
8160;BME280;27404;52.398;9.646;2022-07-23T05:51:23;101108.41;;;30.87;36.14
8160;BME280;27404;52.398;9.646;2022-07-23T05:53:49;101112.97;;;31.95;34.47
8160;BME280;27404;52.398;9.646;2022-07-23T05:56:15;101117.22;;;31.50;34.36
8160;BME280;27404;52.398;9.646;2022-07-23T05:58:41;101118.88;;;31.70;33.51
8160;BME280;27404;52.398;9.646;2022-07-23T06:01:07;101133.97;;;32.33;32.70
8160;BME280;27404;52.398;9.646;2022-07-23T06:03:32;101118.44;;;32.47;31.89
8160;BME280;27404;52.398;9.646;2022-07-23T06:05:58;101125.88;;;33.48;30.96
8160;BME280;27404;52.398;9.646;2022-07-23T06:08:23;101131.88;;;34.01;29.55
8160;BME280;27404;52.398;9.646;2022-07-23T06:10:49;101135.84;;;34.30;29.25
8160;BME280;27404;52.398;9.646;2022-07-23T06:13:14;101128.84;;;34.54;28.62
8160;BME280;27404;52.398;9.646;2022-07-23T06:15:42;101135.47;;;35.14;27.81
8160;BME280;27404;52.398;9.646;2022-07-23T06:18:07;101131.03;;;34.72;27.55
8160;BME280;27404;52.398;9.646;2022-07-23T06:20:33;101129.88;;;34.39;28.30
8160;BME280;27404;52.398;9.646;2022-07-23T06:22:58;101129.38;;;35.12;27.33
8160;BME280;27404;52.398;9.646;2022-07-23T06:25:24;101124.69;;;36.12;26.00
8160;BME280;27404;52.398;9.646;2022-07-23T06:27:49;101124.13;;;35.14;27.35
8160;BME280;27404;52.398;9.646;2022-07-23T06:30:15;101120.09;;;35.90;26.26
8160;BME280;27404;52.398;9.646;2022-07-23T06:32:44;101122.59;;;35.28;26.85
8160;BME280;27404;52.398;9.646;2022-07-23T06:35:10;101120.69;;;36.28;25.89
8160;BME280;27404;52.398;9.646;2022-07-23T06:37:35;101122.03;;;37.03;24.81
8160;BME280;27404;52.398;9.646;2022-07-23T06:40:01;101131.34;;;37.36;24.53
8160;BME280;27404;52.398;9.646;2022-07-23T06:42:26;101126.13;;;35.73;26.08
8160;BME280;27404;52.398;9.646;2022-07-23T06:44:52;101135.84;;;35.65;26.19
8160;BME280;27404;52.398;9.646;2022-07-23T06:47:17;101136.28;;;35.71;26.29
8160;BME280;27404;52.398;9.646;2022-07-23T06:49:43;101137.19;;;35.97;25.77
8160;BME280;27404;52.398;9.646;2022-07-23T06:52:08;101133.00;;;35.65;26.15
8160;BME280;27404;52.398;9.646;2022-07-23T06:54:34;101137.19;;;35.26;26.49
8160;BME280;27404;52.398;9.646;2022-07-23T06:56:59;101129.38;;;33.69;28.77
8160;BME280;27404;52.398;9.646;2022-07-23T06:59:25;101130.81;;;34.16;28.44
8160;BME280;27404;52.398;9.646;2022-07-23T07:01:50;101130.28;;;34.41;28.13
8160;BME280;27404;52.398;9.646;2022-07-23T07:04:16;101134.81;;;34.46;27.88
8160;BME280;27404;52.398;9.646;2022-07-23T07:06:41;101138.81;;;33.76;27.26
8160;BME280;27404;52.398;9.646;2022-07-23T07:09:07;101141.97;;;33.71;28.22
8160;BME280;27404;52.398;9.646;2022-07-23T07:11:32;101140.81;;;34.03;27.51
8160;BME280;27404;52.398;9.646;2022-07-23T07:13:58;101136.56;;;33.35;29.01
8160;BME280;27404;52.398;9.646;2022-07-23T07:16:23;101146.31;;;33.11;27.77
8160;BME280;27404;52.398;9.646;2022-07-23T07:18:48;101143.03;;;31.16;31.12
8160;BME280;27404;52.398;9.646;2022-07-23T07:21:14;101148.25;;;31.66;30.85
8160;BME280;27404;52.398;9.646;2022-07-23T07:23:39;101150.25;;;32.01;30.63
8160;BME280;27404;52.398;9.646;2022-07-23T07:26:05;101143.16;;;30.59;32.07
8160;BME280;27404;52.398;9.646;2022-07-23T07:28:30;101145.78;;;29.08;35.30
8160;BME280;27404;52.398;9.646;2022-07-23T07:30:56;101140.78;;;27.01;38.77
8160;BME280;27404;52.398;9.646;2022-07-23T07:33:21;101146.84;;;26.47;38.98
8160;BME280;27404;52.398;9.646;2022-07-23T07:35:47;101139.88;;;25.16;42.59
8160;BME280;27404;52.398;9.646;2022-07-23T07:38:13;101145.63;;;24.34;45.60
8160;BME280;27404;52.398;9.646;2022-07-23T07:40:38;101145.13;;;24.09;48.95
8160;BME280;27404;52.398;9.646;2022-07-23T07:43:04;101143.84;;;23.78;51.84
8160;BME280;27404;52.398;9.646;2022-07-23T07:45:29;101146.50;;;22.53;54.20
8160;BME280;27404;52.398;9.646;2022-07-23T07:47:55;101143.53;;;21.48;59.53
8160;BME280;27404;52.398;9.646;2022-07-23T07:50:21;101148.97;;;21.34;63.79
8160;BME280;27404;52.398;9.646;2022-07-23T07:52:47;101141.81;;;21.28;64.04
8160;BME280;27404;52.398;9.646;2022-07-23T07:55:13;101139.75;;;21.39;64.54
8160;BME280;27404;52.398;9.646;2022-07-23T07:57:39;101141.81;;;21.28;62.85
8160;BME280;27404;52.398;9.646;2022-07-23T08:00:06;101148.91;;;21.64;58.73
8160;BME280;27404;52.398;9.646;2022-07-23T08:02:47;101143.28;;;21.69;57.63
8160;BME280;27404;52.398;9.646;2022-07-23T08:05:13;101152.06;;;21.33;61.17
8160;BME280;27404;52.398;9.646;2022-07-23T08:07:39;101148.38;;;21.13;64.55
8160;BME280;27404;52.398;9.646;2022-07-23T08:10:09;101143.00;;;21.70;62.67
8160;BME280;27404;52.398;9.646;2022-07-23T08:12:39;101149.75;;;22.41;57.24
8160;BME280;27404;52.398;9.646;2022-07-23T08:15:06;101149.69;;;22.08;58.38
8160;BME280;27404;52.398;9.646;2022-07-23T08:17:32;101157.19;;;21.69;61.97
8160;BME280;27404;52.398;9.646;2022-07-23T08:19:57;101157.91;;;21.31;59.83
8160;BME280;27404;52.398;9.646;2022-07-23T08:22:23;101167.84;;;21.13;61.33
8160;BME280;27404;52.398;9.646;2022-07-23T08:24:48;101156.00;;;21.51;60.77
8160;BME280;27404;52.398;9.646;2022-07-23T08:27:13;101163.69;;;21.83;60.99
8160;BME280;27404;52.398;9.646;2022-07-23T08:29:39;101158.78;;;22.52;55.50
8160;BME280;27404;52.398;9.646;2022-07-23T08:32:04;101157.97;;;22.98;52.15
8160;BME280;27404;52.398;9.646;2022-07-23T08:34:30;101160.19;;;23.71;48.23
8160;BME280;27404;52.398;9.646;2022-07-23T08:36:55;101166.22;;;24.15;47.13
8160;BME280;27404;52.398;9.646;2022-07-23T08:39:21;101165.91;;;23.89;46.73
8160;BME280;27404;52.398;9.646;2022-07-23T08:41:47;101167.44;;;23.95;47.07
8160;BME280;27404;52.398;9.646;2022-07-23T08:44:15;101172.94;;;24.00;44.91
8160;BME280;27404;52.398;9.646;2022-07-23T08:46:41;101168.28;;;24.09;44.48
8160;BME280;27404;52.398;9.646;2022-07-23T08:49:08;101171.19;;;24.04;45.13
8160;BME280;27404;52.398;9.646;2022-07-23T08:51:34;101165.94;;;23.75;45.54
8160;BME280;27404;52.398;9.646;2022-07-23T08:54:00;101166.47;;;23.07;45.65
8160;BME280;27404;52.398;9.646;2022-07-23T08:56:26;101169.13;;;22.98;46.95
8160;BME280;27404;52.398;9.646;2022-07-23T08:58:53;101165.28;;;22.94;47.79
8160;BME280;27404;52.398;9.646;2022-07-23T09:01:19;101174.94;;;23.16;48.56
8160;BME280;27404;52.398;9.646;2022-07-23T09:03:45;101173.75;;;22.89;48.94
8160;BME280;27404;52.398;9.646;2022-07-23T09:06:10;101173.78;;;23.03;49.71
8160;BME280;27404;52.398;9.646;2022-07-23T09:08:40;101172.66;;;22.71;50.29
8160;BME280;27404;52.398;9.646;2022-07-23T09:11:10;101168.72;;;22.58;50.63
8160;BME280;27404;52.398;9.646;2022-07-23T09:13:49;101165.69;;;22.54;49.32
8160;BME280;27404;52.398;9.646;2022-07-23T09:16:18;101167.19;;;23.13;48.33
8160;BME280;27404;52.398;9.646;2022-07-23T09:21:27;101172.91;;;23.35;47.87
8160;BME280;27404;52.398;9.646;2022-07-23T09:24:02;101168.53;;;23.15;48.83
8160;BME280;27404;52.398;9.646;2022-07-23T09:31:51;101184.78;;;23.27;47.46
8160;BME280;27404;52.398;9.646;2022-07-23T09:34:22;101177.13;;;23.61;46.63
8160;BME280;27404;52.398;9.646;2022-07-23T09:36:49;101177.44;;;23.31;46.70
8160;BME280;27404;52.398;9.646;2022-07-23T09:39:22;101177.56;;;23.26;47.25
8160;BME280;27404;52.398;9.646;2022-07-23T09:41:49;101169.13;;;22.98;51.55
8160;BME280;27404;52.398;9.646;2022-07-23T09:44:19;101169.75;;;22.62;51.20
8160;BME280;27404;52.398;9.646;2022-07-23T09:46:46;101166.47;;;23.07;48.50
8160;BME280;27404;52.398;9.646;2022-07-23T09:49:23;101168.25;;;23.59;46.96
8160;BME280;27404;52.398;9.646;2022-07-23T09:54:29;101171.00;;;23.17;45.69
8160;BME280;27404;52.398;9.646;2022-07-23T09:56:57;101164.28;;;23.74;45.93
8160;BME280;27404;52.398;9.646;2022-07-23T09:59:45;101154.75;;;24.03;43.25
8160;BME280;27404;52.398;9.646;2022-07-23T10:02:13;101166.38;;;24.19;43.56
8160;BME280;27404;52.398;9.646;2022-07-23T10:04:40;101167.69;;;23.99;44.13
8160;BME280;27404;52.398;9.646;2022-07-23T10:07:08;101169.06;;;23.59;43.41
8160;BME280;27404;52.398;9.646;2022-07-23T10:09:37;101162.75;;;23.67;44.99
8160;BME280;27404;52.398;9.646;2022-07-23T10:12:09;101166.31;;;22.98;44.73
8160;BME280;27404;52.398;9.646;2022-07-23T10:14:53;101173.28;;;22.68;45.77
8160;BME280;27404;52.398;9.646;2022-07-23T10:17:19;101173.84;;;22.51;46.57
8160;BME280;27404;52.398;9.646;2022-07-23T10:19:44;101175.06;;;22.25;49.43
8160;BME280;27404;52.398;9.646;2022-07-23T10:22:19;101173.25;;;22.34;48.31
8160;BME280;27404;52.398;9.646;2022-07-23T10:28:16;101170.22;;;22.83;47.11
8160;BME280;27404;52.398;9.646;2022-07-23T10:31:00;101175.19;;;23.33;43.56
8160;BME280;27404;52.398;9.646;2022-07-23T10:36:23;101163.88;;;23.80;42.61
8160;BME280;27404;52.398;9.646;2022-07-23T10:39:02;101170.25;;;24.09;42.12
8160;BME280;27404;52.398;9.646;2022-07-23T10:41:37;101182.50;;;23.57;41.97
8160;BME280;27404;52.398;9.646;2022-07-23T10:44:21;101174.44;;;23.28;42.99
8160;BME280;27404;52.398;9.646;2022-07-23T10:47:02;101176.34;;;22.99;43.92
8160;BME280;27404;52.398;9.646;2022-07-23T10:49:46;101171.06;;;22.84;44.44
8160;BME280;27404;52.398;9.646;2022-07-23T10:52:16;101168.13;;;22.75;44.96
8160;BME280;27404;52.398;9.646;2022-07-23T10:54:44;101177.97;;;22.86;44.95
8160;BME280;27404;52.398;9.646;2022-07-23T10:57:12;101179.66;;;23.01;44.59
8160;BME280;27404;52.398;9.646;2022-07-23T11:02:28;101167.75;;;22.29;45.09
8160;BME280;27404;52.398;9.646;2022-07-23T11:04:59;101171.28;;;22.16;45.46
8160;BME280;27404;52.398;9.646;2022-07-23T11:07:25;101174.22;;;21.86;46.21
8160;BME280;27404;52.398;9.646;2022-07-23T11:09:50;101173.75;;;21.98;45.59
8160;BME280;27404;52.398;9.646;2022-07-23T11:12:40;101165.41;;;22.56;45.70
8160;BME280;27404;52.398;9.646;2022-07-23T11:15:09;101172.22;;;23.11;42.64
8160;BME280;27404;52.398;9.646;2022-07-23T11:20:18;101176.47;;;23.78;41.70
8160;BME280;27404;52.398;9.646;2022-07-23T11:25:14;101168.03;;;23.41;41.96
8160;BME280;27404;52.398;9.646;2022-07-23T11:28:09;101164.06;;;23.00;43.08
8160;BME280;27404;52.398;9.646;2022-07-23T11:35:42;101169.06;;;22.70;42.92
8160;BME280;27404;52.398;9.646;2022-07-23T11:38:18;101158.44;;;22.72;43.10
8160;BME280;27404;52.398;9.646;2022-07-23T11:40:46;101155.75;;;22.67;43.68
8160;BME280;27404;52.398;9.646;2022-07-23T11:43:11;101152.69;;;22.83;43.38
8160;BME280;27404;52.398;9.646;2022-07-23T11:45:45;101157.53;;;22.91;43.75
8160;BME280;27404;52.398;9.646;2022-07-23T11:48:25;101153.59;;;22.92;42.34
8160;BME280;27404;52.398;9.646;2022-07-23T11:50:52;101154.16;;;23.08;43.09
8160;BME280;27404;52.398;9.646;2022-07-23T11:53:22;101158.34;;;23.39;43.24
8160;BME280;27404;52.398;9.646;2022-07-23T11:55:48;101163.81;;;23.44;43.38
8160;BME280;27404;52.398;9.646;2022-07-23T11:58:14;101161.59;;;23.69;41.75
8160;BME280;27404;52.398;9.646;2022-07-23T12:00:41;101162.53;;;23.78;41.95
8160;BME280;27404;52.398;9.646;2022-07-23T12:03:07;101159.41;;;23.93;41.30
8160;BME280;27404;52.398;9.646;2022-07-23T12:05:35;101165.84;;;23.80;41.27
8160;BME280;27404;52.398;9.646;2022-07-23T12:08:03;101162.84;;;23.20;42.05
8160;BME280;27404;52.398;9.646;2022-07-23T12:10:37;101157.97;;;22.98;43.07
8160;BME280;27404;52.398;9.646;2022-07-23T12:13:09;101161.16;;;22.91;43.20
8160;BME280;27404;52.398;9.646;2022-07-23T12:15:43;101162.63;;;22.56;44.08
8160;BME280;27404;52.398;9.646;2022-07-23T12:18:11;101162.22;;;22.43;44.64
8160;BME280;27404;52.398;9.646;2022-07-23T12:20:40;101158.72;;;22.38;45.17
8160;BME280;27404;52.398;9.646;2022-07-23T12:23:08;101155.31;;;22.41;44.80
8160;BME280;27404;52.398;9.646;2022-07-23T12:25:36;101157.22;;;22.45;44.45
8160;BME280;27404;52.398;9.646;2022-07-23T12:28:16;101157.88;;;22.37;45.25
8160;BME280;27404;52.398;9.646;2022-07-23T12:30:53;101148.53;;;22.28;45.42
8160;BME280;27404;52.398;9.646;2022-07-23T12:33:31;101157.06;;;22.37;46.53
8160;BME280;27404;52.398;9.646;2022-07-23T12:35:59;101161.56;;;22.52;44.16
8160;BME280;27404;52.398;9.646;2022-07-23T12:38:28;101163.25;;;22.67;44.07
8160;BME280;27404;52.398;9.646;2022-07-23T12:40:58;101161.69;;;22.60;43.01
8160;BME280;27404;52.398;9.646;2022-07-23T12:43:29;101164.28;;;22.57;43.33
8160;BME280;27404;52.398;9.646;2022-07-23T12:45:56;101157.34;;;22.54;43.30
8160;BME280;27404;52.398;9.646;2022-07-23T12:48:33;101158.09;;;22.60;43.08
8160;BME280;27404;52.398;9.646;2022-07-23T12:51:06;101165.00;;;22.43;43.07
8160;BME280;27404;52.398;9.646;2022-07-23T12:53:47;101156.63;;;22.10;43.53
8160;BME280;27404;52.398;9.646;2022-07-23T12:56:18;101161.88;;;22.31;43.63
8160;BME280;27404;52.398;9.646;2022-07-23T12:58:52;101169.88;;;22.71;41.86
8160;BME280;27404;52.398;9.646;2022-07-23T13:01:26;101160.94;;;22.88;42.97
8160;BME280;27404;52.398;9.646;2022-07-23T13:06:32;101174.16;;;22.82;42.37
8160;BME280;27404;52.398;9.646;2022-07-23T13:08:57;101168.66;;;22.77;42.56
8160;BME280;27404;52.398;9.646;2022-07-23T13:11:23;101175.59;;;22.80;42.73
8160;BME280;27404;52.398;9.646;2022-07-23T13:13:49;101174.22;;;22.77;41.75
8160;BME280;27404;52.398;9.646;2022-07-23T13:16:14;101170.50;;;22.68;42.16
8160;BME280;27404;52.398;9.646;2022-07-23T13:18:40;101173.25;;;22.54;43.21
8160;BME280;27404;52.398;9.646;2022-07-23T13:21:06;101173.00;;;22.31;43.35
8160;BME280;27404;52.398;9.646;2022-07-23T13:23:31;101174.81;;;22.41;44.29
8160;BME280;27404;52.398;9.646;2022-07-23T13:25:57;101174.41;;;22.67;43.58
8160;BME280;27404;52.398;9.646;2022-07-23T13:28:22;101165.06;;;22.76;42.93